sensor_id;sensor_type;location;lat;lon;timestamp;pressure;altitude;pressure_sealevel;temperature;humidity
10978;BME280;5542;48.272;10.794;2024-02-23T00:01:45;93720.50;;;7.90;87.26
10978;BME280;5542;48.272;10.794;2024-02-23T00:04:12;93742.50;;;7.94;86.30
10978;BME280;5542;48.272;10.794;2024-02-23T00:06:38;93746.41;;;7.82;85.79
10978;BME280;5542;48.272;10.794;2024-02-23T00:09:05;93734.63;;;7.79;85.88
10978;BME280;5542;48.272;10.794;2024-02-23T00:11:33;93758.69;;;7.76;84.75
10978;BME280;5542;48.272;10.794;2024-02-23T00:14:05;93762.03;;;7.56;85.38
10978;BME280;5542;48.272;10.794;2024-02-23T00:16:37;93746.09;;;7.63;84.97
10978;BME280;5542;48.272;10.794;2024-02-23T00:19:04;93767.78;;;7.53;83.47
10978;BME280;5542;48.272;10.794;2024-02-23T00:21:30;93755.69;;;7.37;84.28
10978;BME280;5542;48.272;10.794;2024-02-23T00:23:57;93770.06;;;7.34;83.22
10978;BME280;5542;48.272;10.794;2024-02-23T00:26:23;93780.53;;;7.39;83.10
10978;BME280;5542;48.272;10.794;2024-02-23T00:28:52;93781.28;;;7.35;82.97
10978;BME280;5542;48.272;10.794;2024-02-23T00:31:18;93795.13;;;7.25;80.43
10978;BME280;5542;48.272;10.794;2024-02-23T00:33:45;93783.66;;;7.31;80.96
10978;BME280;5542;48.272;10.794;2024-02-23T00:36:12;93791.44;;;7.21;79.66
10978;BME280;5542;48.272;10.794;2024-02-23T00:38:38;93791.16;;;7.12;79.89
10978;BME280;5542;48.272;10.794;2024-02-23T00:41:05;93793.03;;;7.22;79.10
10978;BME280;5542;48.272;10.794;2024-02-23T00:43:37;93798.78;;;7.24;78.17
10978;BME280;5542;48.272;10.794;2024-02-23T00:46:06;93807.41;;;7.25;78.40
10978;BME280;5542;48.272;10.794;2024-02-23T00:48:33;93808.19;;;7.25;77.12
10978;BME280;5542;48.272;10.794;2024-02-23T00:51:00;93813.94;;;7.22;77.62
10978;BME280;5542;48.272;10.794;2024-02-23T00:53:28;93829.63;;;7.22;77.72
10978;BME280;5542;48.272;10.794;2024-02-23T00:55:54;93842.75;;;7.32;76.73
10978;BME280;5542;48.272;10.794;2024-02-23T00:58:21;93836.75;;;7.32;76.51
10978;BME280;5542;48.272;10.794;2024-02-23T01:00:48;93840.59;;;7.19;77.40
10978;BME280;5542;48.272;10.794;2024-02-23T01:03:16;93847.91;;;7.17;77.26
10978;BME280;5542;48.272;10.794;2024-02-23T01:05:42;93847.38;;;7.20;78.03
10978;BME280;5542;48.272;10.794;2024-02-23T01:08:09;93846.53;;;7.09;78.15
10978;BME280;5542;48.272;10.794;2024-02-23T01:10:36;93841.34;;;7.14;76.88
10978;BME280;5542;48.272;10.794;2024-02-23T01:13:02;93846.84;;;7.18;76.73
10978;BME280;5542;48.272;10.794;2024-02-23T01:15:30;93841.63;;;7.18;76.76
10978;BME280;5542;48.272;10.794;2024-02-23T01:17:56;93846.78;;;7.03;77.45
10978;BME280;5542;48.272;10.794;2024-02-23T01:20:24;93855.56;;;6.91;76.93
10978;BME280;5542;48.272;10.794;2024-02-23T01:22:51;93851.66;;;6.94;76.89
10978;BME280;5542;48.272;10.794;2024-02-23T01:25:18;93853.69;;;6.87;76.14
10978;BME280;5542;48.272;10.794;2024-02-23T01:27:45;93853.66;;;6.82;76.74
10978;BME280;5542;48.272;10.794;2024-02-23T01:30:11;93873.28;;;6.84;76.24
10978;BME280;5542;48.272;10.794;2024-02-23T01:32:38;93867.34;;;6.94;76.00
10978;BME280;5542;48.272;10.794;2024-02-23T01:35:06;93850.28;;;6.86;75.58
10978;BME280;5542;48.272;10.794;2024-02-23T01:37:34;93870.91;;;6.83;75.90
10978;BME280;5542;48.272;10.794;2024-02-23T01:40:01;93873.81;;;6.86;75.69
10978;BME280;5542;48.272;10.794;2024-02-23T01:42:27;93875.66;;;6.86;74.57
10978;BME280;5542;48.272;10.794;2024-02-23T01:44:54;93869.59;;;6.80;75.07
10978;BME280;5542;48.272;10.794;2024-02-23T01:47:22;93871.13;;;6.76;75.74
10978;BME280;5542;48.272;10.794;2024-02-23T01:49:49;93869.34;;;6.82;75.24
10978;BME280;5542;48.272;10.794;2024-02-23T01:52:17;93863.63;;;6.53;75.43
10978;BME280;5542;48.272;10.794;2024-02-23T01:54:45;93876.41;;;6.54;76.96
10978;BME280;5542;48.272;10.794;2024-02-23T01:57:12;93887.47;;;6.61;76.50
10978;BME280;5542;48.272;10.794;2024-02-23T01:59:40;93890.16;;;6.72;76.08
10978;BME280;5542;48.272;10.794;2024-02-23T02:02:07;93886.13;;;6.59;77.12
10978;BME280;5542;48.272;10.794;2024-02-23T02:04:34;93885.34;;;6.58;77.67
10978;BME280;5542;48.272;10.794;2024-02-23T02:07:01;93891.22;;;6.44;77.83
10978;BME280;5542;48.272;10.794;2024-02-23T02:09:27;93889.03;;;6.35;78.72
10978;BME280;5542;48.272;10.794;2024-02-23T02:11:55;93891.25;;;6.49;78.26
10978;BME280;5542;48.272;10.794;2024-02-23T02:14:22;93894.97;;;6.53;78.41
10978;BME280;5542;48.272;10.794;2024-02-23T02:16:49;93905.41;;;6.53;78.17
10978;BME280;5542;48.272;10.794;2024-02-23T02:19:15;93903.09;;;6.56;78.57
10978;BME280;5542;48.272;10.794;2024-02-23T02:21:42;93897.53;;;6.48;78.33
10978;BME280;5542;48.272;10.794;2024-02-23T02:24:09;93920.03;;;6.54;79.64
10978;BME280;5542;48.272;10.794;2024-02-23T02:26:36;93936.22;;;6.51;79.90
10978;BME280;5542;48.272;10.794;2024-02-23T02:29:04;93941.72;;;6.27;80.55
10978;BME280;5542;48.272;10.794;2024-02-23T02:31:31;93950.56;;;6.26;81.67
10978;BME280;5542;48.272;10.794;2024-02-23T02:34:03;93957.84;;;6.24;82.91
10978;BME280;5542;48.272;10.794;2024-02-23T02:36:29;93968.25;;;6.19;82.43
10978;BME280;5542;48.272;10.794;2024-02-23T02:38:56;93973.09;;;6.10;83.09
10978;BME280;5542;48.272;10.794;2024-02-23T02:41:24;93974.59;;;6.06;83.13
10978;BME280;5542;48.272;10.794;2024-02-23T02:43:54;93974.00;;;5.99;83.84
10978;BME280;5542;48.272;10.794;2024-02-23T02:46:22;93970.03;;;5.97;84.32
10978;BME280;5542;48.272;10.794;2024-02-23T02:48:48;93956.47;;;5.95;84.40
10978;BME280;5542;48.272;10.794;2024-02-23T02:51:15;93952.50;;;5.92;84.68
10978;BME280;5542;48.272;10.794;2024-02-23T02:53:42;93966.66;;;5.96;84.68
10978;BME280;5542;48.272;10.794;2024-02-23T02:56:08;93968.47;;;5.96;84.48
10978;BME280;5542;48.272;10.794;2024-02-23T02:58:35;93967.75;;;5.83;84.11
10978;BME280;5542;48.272;10.794;2024-02-23T03:01:02;93965.81;;;5.74;85.49
10978;BME280;5542;48.272;10.794;2024-02-23T03:03:30;93957.50;;;5.77;85.78
10978;BME280;5542;48.272;10.794;2024-02-23T03:05:57;93957.75;;;5.75;85.91
10978;BME280;5542;48.272;10.794;2024-02-23T03:08:24;93947.31;;;5.75;85.62
10978;BME280;5542;48.272;10.794;2024-02-23T03:10:51;93946.69;;;5.68;85.74
10978;BME280;5542;48.272;10.794;2024-02-23T03:13:18;93956.03;;;5.64;85.73
10978;BME280;5542;48.272;10.794;2024-02-23T03:15:44;93950.50;;;5.60;85.97
10978;BME280;5542;48.272;10.794;2024-02-23T03:18:11;93949.31;;;5.68;85.28
10978;BME280;5542;48.272;10.794;2024-02-23T03:20:41;93950.50;;;5.60;85.15
10978;BME280;5542;48.272;10.794;2024-02-23T03:23:08;93943.41;;;5.56;86.34
10978;BME280;5542;48.272;10.794;2024-02-23T03:25:35;93936.84;;;5.53;85.98
10978;BME280;5542;48.272;10.794;2024-02-23T03:28:03;93933.06;;;5.44;87.36
10978;BME280;5542;48.272;10.794;2024-02-23T03:30:29;93936.00;;;5.48;87.71
10978;BME280;5542;48.272;10.794;2024-02-23T03:32:56;93937.09;;;5.52;88.13
10978;BME280;5542;48.272;10.794;2024-02-23T03:35:22;93934.31;;;5.58;87.56
10978;BME280;5542;48.272;10.794;2024-02-23T03:37:50;93934.00;;;5.55;87.40
10978;BME280;5542;48.272;10.794;2024-02-23T03:40:17;93932.09;;;5.50;87.99
10978;BME280;5542;48.272;10.794;2024-02-23T03:42:44;93930.72;;;5.64;86.62
10978;BME280;5542;48.272;10.794;2024-02-23T03:45:11;93924.66;;;5.59;87.07
10978;BME280;5542;48.272;10.794;2024-02-23T03:47:38;93930.84;;;5.53;87.42
10978;BME280;5542;48.272;10.794;2024-02-23T03:50:06;93929.06;;;5.36;88.48
10978;BME280;5542;48.272;10.794;2024-02-23T03:52:33;93942.72;;;5.44;87.90
10978;BME280;5542;48.272;10.794;2024-02-23T03:55:01;93947.72;;;5.28;88.29
10978;BME280;5542;48.272;10.794;2024-02-23T03:57:29;93940.94;;;5.27;89.03
10978;BME280;5542;48.272;10.794;2024-02-23T03:59:56;93945.56;;;5.25;88.31
10978;BME280;5542;48.272;10.794;2024-02-23T04:02:23;93952.22;;;5.33;88.38
10978;BME280;5542;48.272;10.794;2024-02-23T04:04:50;93948.16;;;5.42;87.47
10978;BME280;5542;48.272;10.794;2024-02-23T04:07:16;93947.78;;;5.33;87.06
10978;BME280;5542;48.272;10.794;2024-02-23T04:09:43;93955.28;;;5.30;86.66
10978;BME280;5542;48.272;10.794;2024-02-23T04:12:11;93957.81;;;5.42;86.34
10978;BME280;5542;48.272;10.794;2024-02-23T04:14:38;93952.75;;;5.52;82.42
10978;BME280;5542;48.272;10.794;2024-02-23T04:17:05;93945.56;;;5.42;83.13
10978;BME280;5542;48.272;10.794;2024-02-23T04:19:32;93950.00;;;5.42;82.77
10978;BME280;5542;48.272;10.794;2024-02-23T04:21:59;93947.69;;;5.45;81.63
10978;BME280;5542;48.272;10.794;2024-02-23T04:24:25;93938.69;;;5.36;81.35
10978;BME280;5542;48.272;10.794;2024-02-23T04:26:52;93943.75;;;5.43;80.64
10978;BME280;5542;48.272;10.794;2024-02-23T04:29:20;93952.94;;;5.28;80.77
10978;BME280;5542;48.272;10.794;2024-02-23T04:31:46;93951.63;;;5.31;80.89
10978;BME280;5542;48.272;10.794;2024-02-23T04:34:14;93955.75;;;5.44;79.06
10978;BME280;5542;48.272;10.794;2024-02-23T04:36:41;93967.53;;;5.46;79.49
10978;BME280;5542;48.272;10.794;2024-02-23T04:39:08;93952.09;;;5.45;78.53
10978;BME280;5542;48.272;10.794;2024-02-23T04:41:35;93950.00;;;5.25;79.02
10978;BME280;5542;48.272;10.794;2024-02-23T04:44:01;93946.22;;;5.16;78.96
10978;BME280;5542;48.272;10.794;2024-02-23T04:46:30;93954.50;;;5.29;78.42
10978;BME280;5542;48.272;10.794;2024-02-23T04:48:57;93955.13;;;5.36;77.87
10978;BME280;5542;48.272;10.794;2024-02-23T04:51:24;93950.38;;;5.33;77.63
10978;BME280;5542;48.272;10.794;2024-02-23T04:53:50;93950.72;;;5.37;76.78
10978;BME280;5542;48.272;10.794;2024-02-23T04:56:17;93942.38;;;5.40;77.39
10978;BME280;5542;48.272;10.794;2024-02-23T04:58:44;93943.91;;;5.19;78.48
10978;BME280;5542;48.272;10.794;2024-02-23T05:01:11;93934.59;;;5.23;78.99
10978;BME280;5542;48.272;10.794;2024-02-23T05:03:39;93935.28;;;5.35;77.87
10978;BME280;5542;48.272;10.794;2024-02-23T05:06:06;93938.28;;;5.44;76.86
10978;BME280;5542;48.272;10.794;2024-02-23T05:08:32;93945.56;;;5.42;76.64
10978;BME280;5542;48.272;10.794;2024-02-23T05:10:59;93954.50;;;5.46;76.58
10978;BME280;5542;48.272;10.794;2024-02-23T05:13:26;93961.84;;;5.32;77.49
10978;BME280;5542;48.272;10.794;2024-02-23T05:15:55;93965.56;;;5.36;77.38
10978;BME280;5542;48.272;10.794;2024-02-23T05:18:22;93962.31;;;5.29;78.11
10978;BME280;5542;48.272;10.794;2024-02-23T05:20:50;93965.03;;;5.18;78.82
10978;BME280;5542;48.272;10.794;2024-02-23T05:23:16;93967.38;;;5.19;79.28
10978;BME280;5542;48.272;10.794;2024-02-23T05:25:43;93967.84;;;5.16;80.13
10978;BME280;5542;48.272;10.794;2024-02-23T05:28:10;93966.81;;;5.17;80.46
10978;BME280;5542;48.272;10.794;2024-02-23T05:30:36;93970.44;;;5.16;80.95
10978;BME280;5542;48.272;10.794;2024-02-23T05:33:03;93973.44;;;5.25;80.88
10978;BME280;5542;48.272;10.794;2024-02-23T05:35:30;93976.84;;;5.25;80.97
10978;BME280;5542;48.272;10.794;2024-02-23T05:37:58;93974.25;;;5.25;81.38
10978;BME280;5542;48.272;10.794;2024-02-23T05:40:25;93979.22;;;5.44;80.56
10978;BME280;5542;48.272;10.794;2024-02-23T05:42:51;93969.25;;;5.40;81.15
10978;BME280;5542;48.272;10.794;2024-02-23T05:45:18;93976.34;;;5.45;81.50
10978;BME280;5542;48.272;10.794;2024-02-23T05:47:45;93981.03;;;5.43;82.10
10978;BME280;5542;48.272;10.794;2024-02-23T05:50:11;93981.53;;;5.23;83.36
10978;BME280;5542;48.272;10.794;2024-02-23T05:52:38;93984.59;;;5.20;84.45
10978;BME280;5542;48.272;10.794;2024-02-23T05:55:07;93996.59;;;5.21;85.29
10978;BME280;5542;48.272;10.794;2024-02-23T05:57:34;93992.41;;;5.20;85.42
10978;BME280;5542;48.272;10.794;2024-02-23T06:00:01;93999.28;;;5.26;85.92
10978;BME280;5542;48.272;10.794;2024-02-23T06:02:27;93999.28;;;5.26;86.20
10978;BME280;5542;48.272;10.794;2024-02-23T06:04:54;93999.69;;;5.18;86.34
10978;BME280;5542;48.272;10.794;2024-02-23T06:07:20;93995.41;;;5.12;87.30
10978;BME280;5542;48.272;10.794;2024-02-23T06:09:54;93992.88;;;5.17;88.03
10978;BME280;5542;48.272;10.794;2024-02-23T06:12:22;93995.41;;;5.29;87.42
10978;BME280;5542;48.272;10.794;2024-02-23T06:14:50;93998.19;;;5.22;87.11
10978;BME280;5542;48.272;10.794;2024-02-23T06:17:17;93990.53;;;5.32;86.90
10978;BME280;5542;48.272;10.794;2024-02-23T06:19:44;93993.13;;;5.16;87.88
10978;BME280;5542;48.272;10.794;2024-02-23T06:22:11;93994.41;;;5.13;88.05
10978;BME280;5542;48.272;10.794;2024-02-23T06:24:37;93992.88;;;5.17;86.96
10978;BME280;5542;48.272;10.794;2024-02-23T06:27:04;93993.91;;;5.16;87.13
10978;BME280;5542;48.272;10.794;2024-02-23T06:29:32;93988.59;;;5.11;87.33
10978;BME280;5542;48.272;10.794;2024-02-23T06:31:59;93992.56;;;5.13;87.12
10978;BME280;5542;48.272;10.794;2024-02-23T06:34:28;93992.16;;;5.05;87.72
10978;BME280;5542;48.272;10.794;2024-02-23T06:36:55;93990.69;;;5.09;87.06
10978;BME280;5542;48.272;10.794;2024-02-23T06:39:22;93987.75;;;5.05;87.58
10978;BME280;5542;48.272;10.794;2024-02-23T06:41:48;93996.50;;;5.16;86.58
10978;BME280;5542;48.272;10.794;2024-02-23T06:44:15;93998.56;;;5.14;86.06
10978;BME280;5542;48.272;10.794;2024-02-23T06:46:43;94006.22;;;5.04;86.65
10978;BME280;5542;48.272;10.794;2024-02-23T06:49:10;93995.03;;;5.03;86.93
10978;BME280;5542;48.272;10.794;2024-02-23T06:51:36;93998.72;;;5.07;86.23
10978;BME280;5542;48.272;10.794;2024-02-23T06:54:03;94008.50;;;5.17;85.29
10978;BME280;5542;48.272;10.794;2024-02-23T06:56:30;94005.03;;;5.11;85.25
10978;BME280;5542;48.272;10.794;2024-02-23T06:58:56;94002.03;;;5.03;85.86
10978;BME280;5542;48.272;10.794;2024-02-23T07:01:23;94013.47;;;5.02;86.02
10978;BME280;5542;48.272;10.794;2024-02-23T07:03:51;94025.28;;;4.93;86.81
10978;BME280;5542;48.272;10.794;2024-02-23T07:06:17;94034.31;;;5.02;85.88
10978;BME280;5542;48.272;10.794;2024-02-23T07:08:44;94029.47;;;4.94;86.53
10978;BME280;5542;48.272;10.794;2024-02-23T07:11:11;94026.66;;;4.95;86.37
10978;BME280;5542;48.272;10.794;2024-02-23T07:13:38;94027.38;;;4.91;86.69
10978;BME280;5542;48.272;10.794;2024-02-23T07:16:06;94027.03;;;4.87;87.45
10978;BME280;5542;48.272;10.794;2024-02-23T07:18:32;94030.38;;;4.99;86.41
10978;BME280;5542;48.272;10.794;2024-02-23T07:21:01;94027.19;;;4.97;86.74
10978;BME280;5542;48.272;10.794;2024-02-23T07:23:27;94024.69;;;5.02;86.12
10978;BME280;5542;48.272;10.794;2024-02-23T07:25:54;94028.31;;;5.01;86.40
10978;BME280;5542;48.272;10.794;2024-02-23T07:28:21;94028.56;;;5.00;86.67
10978;BME280;5542;48.272;10.794;2024-02-23T07:30:48;94027.00;;;4.99;86.56
10978;BME280;5542;48.272;10.794;2024-02-23T07:33:14;94033.00;;;4.99;86.89
10978;BME280;5542;48.272;10.794;2024-02-23T07:35:41;94024.69;;;5.02;86.01
10978;BME280;5542;48.272;10.794;2024-02-23T07:38:09;94017.19;;;5.06;86.14
10978;BME280;5542;48.272;10.794;2024-02-23T07:40:36;94021.25;;;5.13;85.23
10978;BME280;5542;48.272;10.794;2024-02-23T07:43:02;94018.84;;;5.12;85.12
10978;BME280;5542;48.272;10.794;2024-02-23T07:45:30;94013.63;;;5.12;84.89
10978;BME280;5542;48.272;10.794;2024-02-23T07:47:58;94013.72;;;5.17;85.12
10978;BME280;5542;48.272;10.794;2024-02-23T07:50:25;94016.25;;;5.12;85.34
10978;BME280;5542;48.272;10.794;2024-02-23T07:52:52;94012.38;;;5.14;85.07
10978;BME280;5542;48.272;10.794;2024-02-23T07:55:20;94002.66;;;5.10;84.89
10978;BME280;5542;48.272;10.794;2024-02-23T07:57:47;94009.78;;;5.14;82.86
10978;BME280;5542;48.272;10.794;2024-02-23T08:00:14;94010.50;;;5.10;82.85
10978;BME280;5542;48.272;10.794;2024-02-23T08:02:41;93993.41;;;5.02;83.56
10978;BME280;5542;48.272;10.794;2024-02-23T08:05:08;94002.03;;;5.03;83.88
10978;BME280;5542;48.272;10.794;2024-02-23T08:07:35;94026.03;;;5.05;84.08
10978;BME280;5542;48.272;10.794;2024-02-23T08:10:01;94035.97;;;5.08;83.64
10978;BME280;5542;48.272;10.794;2024-02-23T08:12:31;94032.28;;;5.04;84.09
10978;BME280;5542;48.272;10.794;2024-02-23T08:14:58;94036.78;;;5.08;84.18
10978;BME280;5542;48.272;10.794;2024-02-23T08:17:24;94039.31;;;5.20;83.81
10978;BME280;5542;48.272;10.794;2024-02-23T08:19:51;94045.94;;;5.11;82.91
10978;BME280;5542;48.272;10.794;2024-02-23T08:22:18;94045.84;;;5.06;83.04
10978;BME280;5542;48.272;10.794;2024-02-23T08:24:44;94032.59;;;5.07;82.70
10978;BME280;5542;48.272;10.794;2024-02-23T08:27:11;94035.84;;;5.14;81.99
10978;BME280;5542;48.272;10.794;2024-02-23T08:29:39;94042.63;;;5.16;82.25
10978;BME280;5542;48.272;10.794;2024-02-23T08:32:06;94047.13;;;5.20;81.74
10978;BME280;5542;48.272;10.794;2024-02-23T08:34:33;94047.84;;;5.16;82.35
10978;BME280;5542;48.272;10.794;2024-02-23T08:37:00;94059.28;;;5.14;82.73
10978;BME280;5542;48.272;10.794;2024-02-23T08:39:27;94069.34;;;5.23;81.91
10978;BME280;5542;48.272;10.794;2024-02-23T08:41:54;94074.34;;;5.12;82.46
10978;BME280;5542;48.272;10.794;2024-02-23T08:44:21;94071.38;;;5.21;81.67
10978;BME280;5542;48.272;10.794;2024-02-23T08:46:49;94067.69;;;5.33;80.70
10978;BME280;5542;48.272;10.794;2024-02-23T08:49:15;94076.56;;;5.32;81.28
10978;BME280;5542;48.272;10.794;2024-02-23T08:51:42;94061.63;;;5.28;81.13
10978;BME280;5542;48.272;10.794;2024-02-23T08:54:08;94062.84;;;5.25;80.93
10978;BME280;5542;48.272;10.794;2024-02-23T08:56:36;94063.34;;;5.39;79.73
10978;BME280;5542;48.272;10.794;2024-02-23T08:59:03;94065.25;;;5.44;78.60
10978;BME280;5542;48.272;10.794;2024-02-23T09:01:30;94062.72;;;5.32;79.88
10978;BME280;5542;48.272;10.794;2024-02-23T09:03:58;94066.41;;;5.36;77.86
10978;BME280;5542;48.272;10.794;2024-02-23T09:06:25;94082.78;;;5.48;76.85
10978;BME280;5542;48.272;10.794;2024-02-23T09:08:52;94095.66;;;5.38;77.13
10978;BME280;5542;48.272;10.794;2024-02-23T09:11:18;94082.13;;;5.41;77.15
10978;BME280;5542;48.272;10.794;2024-02-23T09:13:45;94074.03;;;5.37;77.02
10978;BME280;5542;48.272;10.794;2024-02-23T09:16:12;94069.28;;;5.34;77.38
10978;BME280;5542;48.272;10.794;2024-02-23T09:18:39;94070.75;;;5.30;78.43
10978;BME280;5542;48.272;10.794;2024-02-23T09:21:07;94073.44;;;5.35;78.40
10978;BME280;5542;48.272;10.794;2024-02-23T09:23:34;94085.69;;;5.35;78.78
10978;BME280;5542;48.272;10.794;2024-02-23T09:26:01;94081.44;;;5.46;76.28
10978;BME280;5542;48.272;10.794;2024-02-23T09:28:30;94082.53;;;5.50;73.50
10978;BME280;5542;48.272;10.794;2024-02-23T09:30:56;94086.09;;;5.44;74.32
10978;BME280;5542;48.272;10.794;2024-02-23T09:33:23;94079.00;;;5.39;74.10
10978;BME280;5542;48.272;10.794;2024-02-23T09:35:50;94080.66;;;5.45;74.55
10978;BME280;5542;48.272;10.794;2024-02-23T09:38:18;94084.66;;;5.36;73.78
10978;BME280;5542;48.272;10.794;2024-02-23T09:40:45;94084.38;;;5.32;74.23
10978;BME280;5542;48.272;10.794;2024-02-23T09:43:12;94082.63;;;5.38;75.11
10978;BME280;5542;48.272;10.794;2024-02-23T09:45:40;94084.44;;;5.54;72.79
10978;BME280;5542;48.272;10.794;2024-02-23T09:48:08;94083.19;;;5.57;72.16
10978;BME280;5542;48.272;10.794;2024-02-23T09:50:37;94086.84;;;5.56;71.76
10978;BME280;5542;48.272;10.794;2024-02-23T09:53:04;94088.63;;;5.38;68.64
10978;BME280;5542;48.272;10.794;2024-02-23T09:55:35;94086.41;;;5.30;69.21
10978;BME280;5542;48.272;10.794;2024-02-23T09:58:02;94095.72;;;5.26;70.92
10978;BME280;5542;48.272;10.794;2024-02-23T10:00:30;94087.53;;;5.34;71.11
10978;BME280;5542;48.272;10.794;2024-02-23T10:02:57;94083.41;;;5.38;71.36
10978;BME280;5542;48.272;10.794;2024-02-23T10:05:29;94091.16;;;5.50;70.63
10978;BME280;5542;48.272;10.794;2024-02-23T10:07:56;94092.59;;;5.58;69.73
10978;BME280;5542;48.272;10.794;2024-02-23T10:10:24;94089.97;;;5.41;70.27
10978;BME280;5542;48.272;10.794;2024-02-23T10:12:58;94092.50;;;5.53;69.55
10978;BME280;5542;48.272;10.794;2024-02-23T10:15:24;94093.13;;;5.60;69.44
10978;BME280;5542;48.272;10.794;2024-02-23T10:17:51;94096.44;;;5.55;70.55
10978;BME280;5542;48.272;10.794;2024-02-23T10:20:19;94086.91;;;5.61;70.02
10978;BME280;5542;48.272;10.794;2024-02-23T10:22:46;94097.34;;;5.61;69.47
10978;BME280;5542;48.272;10.794;2024-02-23T10:25:13;94095.84;;;5.65;69.61
10978;BME280;5542;48.272;10.794;2024-02-23T10:27:40;94092.69;;;5.63;70.24
10978;BME280;5542;48.272;10.794;2024-02-23T10:30:09;94091.97;;;5.68;68.31
10978;BME280;5542;48.272;10.794;2024-02-23T10:32:38;94082.56;;;5.67;68.39
10978;BME280;5542;48.272;10.794;2024-02-23T10:35:10;94089.03;;;5.64;69.53
10978;BME280;5542;48.272;10.794;2024-02-23T10:37:36;94085.31;;;5.77;68.60
10978;BME280;5542;48.272;10.794;2024-02-23T10:40:06;94091.50;;;5.71;69.02
10978;BME280;5542;48.272;10.794;2024-02-23T10:42:36;94087.63;;;5.73;68.84
10978;BME280;5542;48.272;10.794;2024-02-23T10:45:05;94079.66;;;5.80;68.00
10978;BME280;5542;48.272;10.794;2024-02-23T10:47:35;94083.03;;;5.80;66.37
10978;BME280;5542;48.272;10.794;2024-02-23T10:50:03;94072.53;;;5.75;66.49
10978;BME280;5542;48.272;10.794;2024-02-23T10:52:31;94071.63;;;5.70;67.08
10978;BME280;5542;48.272;10.794;2024-02-23T10:55:00;94074.88;;;5.77;66.50
10978;BME280;5542;48.272;10.794;2024-02-23T10:57:30;94090.53;;;5.77;67.41
10978;BME280;5542;48.272;10.794;2024-02-23T10:59:57;94091.16;;;5.84;66.56
10978;BME280;5542;48.272;10.794;2024-02-23T11:02:24;94087.28;;;5.70;67.56
10978;BME280;5542;48.272;10.794;2024-02-23T11:04:56;94093.16;;;5.77;67.41
10978;BME280;5542;48.272;10.794;2024-02-23T11:07:24;94083.34;;;5.84;66.79
10978;BME280;5542;48.272;10.794;2024-02-23T11:09:54;94078.69;;;5.69;68.73
10978;BME280;5542;48.272;10.794;2024-02-23T11:12:24;94077.69;;;5.70;69.41
10978;BME280;5542;48.272;10.794;2024-02-23T11:14:51;94075.94;;;5.93;68.72
10978;BME280;5542;48.272;10.794;2024-02-23T11:17:22;94074.34;;;5.92;68.77
10978;BME280;5542;48.272;10.794;2024-02-23T11:19:49;94077.09;;;5.85;69.52
10978;BME280;5542;48.272;10.794;2024-02-23T11:22:25;94079.00;;;5.89;69.77
10978;BME280;5542;48.272;10.794;2024-02-23T11:24:52;94078.44;;;5.87;70.12
10978;BME280;5542;48.272;10.794;2024-02-23T11:27:19;94070.94;;;5.91;67.72
10978;BME280;5542;48.272;10.794;2024-02-23T11:29:46;94083.03;;;5.80;69.52
10978;BME280;5542;48.272;10.794;2024-02-23T11:32:14;94081.28;;;5.86;69.77
10978;BME280;5542;48.272;10.794;2024-02-23T11:34:41;94079.47;;;5.86;69.07
10978;BME280;5542;48.272;10.794;2024-02-23T11:37:09;94078.28;;;5.77;70.41
10978;BME280;5542;48.272;10.794;2024-02-23T11:39:39;94072.19;;;5.88;70.06
10978;BME280;5542;48.272;10.794;2024-02-23T11:42:07;94085.47;;;5.87;70.81
10978;BME280;5542;48.272;10.794;2024-02-23T11:44:34;94081.03;;;5.87;70.70
10978;BME280;5542;48.272;10.794;2024-02-23T11:47:00;94067.94;;;5.82;70.99
10978;BME280;5542;48.272;10.794;2024-02-23T11:49:28;94071.09;;;5.84;71.80
10978;BME280;5542;48.272;10.794;2024-02-23T11:51:55;94066.97;;;5.88;72.43
10978;BME280;5542;48.272;10.794;2024-02-23T11:54:22;94067.38;;;5.97;72.08
10978;BME280;5542;48.272;10.794;2024-02-23T11:56:50;94053.69;;;6.07;71.81
10978;BME280;5542;48.272;10.794;2024-02-23T11:59:18;94050.66;;;6.15;71.56
10978;BME280;5542;48.272;10.794;2024-02-23T12:01:45;94044.66;;;6.14;71.48
10978;BME280;5542;48.272;10.794;2024-02-23T12:04:12;94045.78;;;6.02;72.43
10978;BME280;5542;48.272;10.794;2024-02-23T12:06:39;94037.38;;;6.16;71.94
10978;BME280;5542;48.272;10.794;2024-02-23T12:09:06;94034.63;;;6.06;73.12
10978;BME280;5542;48.272;10.794;2024-02-23T12:11:33;94033.44;;;6.14;72.40
10978;BME280;5542;48.272;10.794;2024-02-23T12:14:02;94028.94;;;6.09;72.59
10978;BME280;5542;48.272;10.794;2024-02-23T12:16:33;94033.50;;;6.19;72.37
10978;BME280;5542;48.272;10.794;2024-02-23T12:19:01;94032.78;;;6.24;72.01
10978;BME280;5542;48.272;10.794;2024-02-23T12:21:27;94036.75;;;6.09;72.98
10978;BME280;5542;48.272;10.794;2024-02-23T12:23:54;94038.72;;;6.19;73.11
10978;BME280;5542;48.272;10.794;2024-02-23T12:26:21;94039.03;;;6.23;73.32
10978;BME280;5542;48.272;10.794;2024-02-23T12:28:48;94039.75;;;6.18;73.78
10978;BME280;5542;48.272;10.794;2024-02-23T12:31:23;94041.97;;;6.09;73.86
10978;BME280;5542;48.272;10.794;2024-02-23T12:33:51;94034.09;;;6.04;74.18
10978;BME280;5542;48.272;10.794;2024-02-23T12:36:18;94032.00;;;6.06;73.66
10978;BME280;5542;48.272;10.794;2024-02-23T12:38:45;94049.84;;;5.93;74.82
10978;BME280;5542;48.272;10.794;2024-02-23T12:41:12;94036.84;;;5.98;74.61
10978;BME280;5542;48.272;10.794;2024-02-23T12:43:38;94030.69;;;6.04;73.70
10978;BME280;5542;48.272;10.794;2024-02-23T12:46:05;94044.03;;;5.90;73.85
10978;BME280;5542;48.272;10.794;2024-02-23T12:48:35;94045.50;;;5.98;74.45
10978;BME280;5542;48.272;10.794;2024-02-23T12:51:02;94047.84;;;6.00;74.28
10978;BME280;5542;48.272;10.794;2024-02-23T12:53:33;94045.00;;;6.01;74.44
10978;BME280;5542;48.272;10.794;2024-02-23T12:56:01;94045.78;;;6.02;73.83
10978;BME280;5542;48.272;10.794;2024-02-23T12:58:27;94053.22;;;6.10;74.44
10978;BME280;5542;48.272;10.794;2024-02-23T13:00:55;94041.84;;;5.99;74.22
10978;BME280;5542;48.272;10.794;2024-02-23T13:03:23;94040.88;;;6.05;75.38
10978;BME280;5542;48.272;10.794;2024-02-23T13:05:51;94031.28;;;6.11;75.24
10978;BME280;5542;48.272;10.794;2024-02-23T13:08:18;94031.28;;;6.11;75.59
10978;BME280;5542;48.272;10.794;2024-02-23T13:10:44;94032.41;;;6.15;75.75